sensor_id;sensor_type;location;lat;lon;timestamp;P1;durP1;ratioP1;P2;durP2;ratioP2
20093;SDS011;10206;48.012;10.030;2023-04-24T00:00:28;2.83;;;1.60;;
20093;SDS011;10206;48.012;10.030;2023-04-24T00:02:56;1.90;;;1.53;;
20093;SDS011;10206;48.012;10.030;2023-04-24T00:05:22;1.50;;;1.40;;
20093;SDS011;10206;48.012;10.030;2023-04-24T00:07:49;1.70;;;1.50;;
20093;SDS011;10206;48.012;10.030;2023-04-24T00:10:19;2.13;;;1.30;;
20093;SDS011;10206;48.012;10.030;2023-04-24T00:12:45;2.23;;;1.50;;
20093;SDS011;10206;48.012;10.030;2023-04-24T00:15:12;1.57;;;1.33;;
20093;SDS011;10206;48.012;10.030;2023-04-24T00:17:38;1.57;;;1.47;;
20093;SDS011;10206;48.012;10.030;2023-04-24T00:20:04;2.57;;;1.40;;
20093;SDS011;10206;48.012;10.030;2023-04-24T00:22:31;1.50;;;1.40;;
20093;SDS011;10206;48.012;10.030;2023-04-24T00:24:58;1.60;;;1.40;;
20093;SDS011;10206;48.012;10.030;2023-04-24T00:27:24;1.63;;;1.53;;
20093;SDS011;10206;48.012;10.030;2023-04-24T00:29:50;3.47;;;1.63;;
20093;SDS011;10206;48.012;10.030;2023-04-24T00:32:16;2.00;;;1.70;;
20093;SDS011;10206;48.012;10.030;2023-04-24T00:34:42;3.47;;;1.60;;
20093;SDS011;10206;48.012;10.030;2023-04-24T00:37:08;2.63;;;1.60;;
20093;SDS011;10206;48.012;10.030;2023-04-24T00:39:34;1.93;;;1.73;;
20093;SDS011;10206;48.012;10.030;2023-04-24T00:42:00;2.80;;;1.73;;
20093;SDS011;10206;48.012;10.030;2023-04-24T00:44:27;2.20;;;1.97;;
20093;SDS011;10206;48.012;10.030;2023-04-24T00:46:53;2.57;;;2.13;;
20093;SDS011;10206;48.012;10.030;2023-04-24T00:49:23;3.90;;;2.20;;
20093;SDS011;10206;48.012;10.030;2023-04-24T00:51:50;4.13;;;2.07;;
20093;SDS011;10206;48.012;10.030;2023-04-24T00:54:16;2.37;;;2.10;;
20093;SDS011;10206;48.012;10.030;2023-04-24T00:56:43;2.43;;;2.10;;
20093;SDS011;10206;48.012;10.030;2023-04-24T00:59:10;2.30;;;2.00;;
20093;SDS011;10206;48.012;10.030;2023-04-24T01:01:38;2.57;;;2.00;;
20093;SDS011;10206;48.012;10.030;2023-04-24T01:04:08;2.17;;;1.97;;
20093;SDS011;10206;48.012;10.030;2023-04-24T01:06:36;2.23;;;1.90;;
20093;SDS011;10206;48.012;10.030;2023-04-24T01:09:05;5.97;;;2.30;;
20093;SDS011;10206;48.012;10.030;2023-04-24T01:11:33;2.77;;;1.80;;
20093;SDS011;10206;48.012;10.030;2023-04-24T01:13:59;1.97;;;1.70;;
20093;SDS011;10206;48.012;10.030;2023-04-24T01:16:26;3.17;;;1.70;;
20093;SDS011;10206;48.012;10.030;2023-04-24T01:18:52;1.60;;;1.50;;
20093;SDS011;10206;48.012;10.030;2023-04-24T01:21:18;1.70;;;1.60;;
20093;SDS011;10206;48.012;10.030;2023-04-24T01:23:48;3.00;;;1.83;;
20093;SDS011;10206;48.012;10.030;2023-04-24T01:26:16;2.13;;;1.80;;
20093;SDS011;10206;48.012;10.030;2023-04-24T01:28:45;2.20;;;2.00;;
20093;SDS011;10206;48.012;10.030;2023-04-24T01:31:12;3.80;;;2.00;;
20093;SDS011;10206;48.012;10.030;2023-04-24T01:33:40;3.20;;;2.30;;
20093;SDS011;10206;48.012;10.030;2023-04-24T01:36:07;3.27;;;2.30;;
20093;SDS011;10206;48.012;10.030;2023-04-24T01:38:35;2.13;;;1.90;;
20093;SDS011;10206;48.012;10.030;2023-04-24T01:41:01;2.03;;;1.80;;
20093;SDS011;10206;48.012;10.030;2023-04-24T01:43:28;3.60;;;1.80;;
20093;SDS011;10206;48.012;10.030;2023-04-24T01:45:54;4.10;;;1.60;;
20093;SDS011;10206;48.012;10.030;2023-04-24T01:48:20;2.10;;;1.47;;
20093;SDS011;10206;48.012;10.030;2023-04-24T01:50:47;2.20;;;1.60;;
20093;SDS011;10206;48.012;10.030;2023-04-24T01:53:13;2.43;;;1.90;;
20093;SDS011;10206;48.012;10.030;2023-04-24T01:55:40;2.10;;;1.73;;
20093;SDS011;10206;48.012;10.030;2023-04-24T01:58:06;2.03;;;1.90;;
20093;SDS011;10206;48.012;10.030;2023-04-24T02:00:32;3.70;;;1.70;;
20093;SDS011;10206;48.012;10.030;2023-04-24T02:02:58;2.53;;;1.67;;
20093;SDS011;10206;48.012;10.030;2023-04-24T02:05:26;2.70;;;1.93;;
20093;SDS011;10206;48.012;10.030;2023-04-24T02:07:53;2.10;;;1.80;;
20093;SDS011;10206;48.012;10.030;2023-04-24T02:10:19;2.10;;;1.73;;
20093;SDS011;10206;48.012;10.030;2023-04-24T02:12:45;2.07;;;1.70;;
20093;SDS011;10206;48.012;10.030;2023-04-24T02:15:11;2.77;;;1.87;;
20093;SDS011;10206;48.012;10.030;2023-04-24T02:17:37;2.60;;;1.83;;
20093;SDS011;10206;48.012;10.030;2023-04-24T02:20:04;2.30;;;1.60;;
20093;SDS011;10206;48.012;10.030;2023-04-24T02:22:31;2.73;;;1.60;;
20093;SDS011;10206;48.012;10.030;2023-04-24T02:24:57;3.23;;;1.87;;
20093;SDS011;10206;48.012;10.030;2023-04-24T02:27:23;1.47;;;1.37;;
20093;SDS011;10206;48.012;10.030;2023-04-24T02:29:49;1.43;;;1.30;;
20093;SDS011;10206;48.012;10.030;2023-04-24T02:32:16;1.50;;;1.20;;
20093;SDS011;10206;48.012;10.030;2023-04-24T02:34:42;2.07;;;1.33;;
20093;SDS011;10206;48.012;10.030;2023-04-24T02:37:08;1.50;;;1.30;;
20093;SDS011;10206;48.012;10.030;2023-04-24T02:39:34;1.50;;;1.40;;
20093;SDS011;10206;48.012;10.030;2023-04-24T02:42:00;1.73;;;1.60;;
20093;SDS011;10206;48.012;10.030;2023-04-24T02:44:26;1.67;;;1.30;;
20093;SDS011;10206;48.012;10.030;2023-04-24T02:46:52;1.50;;;1.40;;
20093;SDS011;10206;48.012;10.030;2023-04-24T02:49:19;1.90;;;1.70;;
20093;SDS011;10206;48.012;10.030;2023-04-24T02:51:45;1.40;;;1.30;;
20093;SDS011;10206;48.012;10.030;2023-04-24T02:54:11;1.47;;;1.37;;
20093;SDS011;10206;48.012;10.030;2023-04-24T02:56:37;1.40;;;1.30;;
20093;SDS011;10206;48.012;10.030;2023-04-24T02:59:03;1.33;;;1.23;;
20093;SDS011;10206;48.012;10.030;2023-04-24T03:01:29;2.03;;;1.50;;
20093;SDS011;10206;48.012;10.030;2023-04-24T03:03:55;2.27;;;1.47;;
20093;SDS011;10206;48.012;10.030;2023-04-24T03:06:21;1.50;;;1.40;;
20093;SDS011;10206;48.012;10.030;2023-04-24T03:08:47;2.50;;;1.50;;
20093;SDS011;10206;48.012;10.030;2023-04-24T03:11:14;2.30;;;1.70;;
20093;SDS011;10206;48.012;10.030;2023-04-24T03:13:40;2.60;;;2.03;;
20093;SDS011;10206;48.012;10.030;2023-04-24T03:16:06;2.17;;;1.77;;
20093;SDS011;10206;48.012;10.030;2023-04-24T03:18:32;2.30;;;2.10;;
20093;SDS011;10206;48.012;10.030;2023-04-24T03:20:58;2.03;;;1.90;;
20093;SDS011;10206;48.012;10.030;2023-04-24T03:23:24;2.93;;;2.10;;
20093;SDS011;10206;48.012;10.030;2023-04-24T03:25:50;1.80;;;1.60;;
20093;SDS011;10206;48.012;10.030;2023-04-24T03:28:16;2.40;;;1.70;;
20093;SDS011;10206;48.012;10.030;2023-04-24T03:30:42;2.77;;;1.60;;
20093;SDS011;10206;48.012;10.030;2023-04-24T03:33:08;2.57;;;1.70;;
20093;SDS011;10206;48.012;10.030;2023-04-24T03:35:34;2.07;;;1.50;;
20093;SDS011;10206;48.012;10.030;2023-04-24T03:38:01;1.80;;;1.50;;
20093;SDS011;10206;48.012;10.030;2023-04-24T03:40:29;2.27;;;1.50;;
20093;SDS011;10206;48.012;10.030;2023-04-24T03:42:55;1.60;;;1.50;;
20093;SDS011;10206;48.012;10.030;2023-04-24T03:45:21;2.10;;;1.60;;
20093;SDS011;10206;48.012;10.030;2023-04-24T03:47:47;3.40;;;1.70;;
20093;SDS011;10206;48.012;10.030;2023-04-24T03:50:14;1.60;;;1.50;;
20093;SDS011;10206;48.012;10.030;2023-04-24T03:52:40;1.73;;;1.37;;
20093;SDS011;10206;48.012;10.030;2023-04-24T03:55:06;2.33;;;1.50;;
20093;SDS011;10206;48.012;10.030;2023-04-24T03:57:32;3.10;;;1.60;;
20093;SDS011;10206;48.012;10.030;2023-04-24T03:59:58;1.83;;;1.67;;
20093;SDS011;10206;48.012;10.030;2023-04-24T04:02:25;1.90;;;1.80;;
20093;SDS011;10206;48.012;10.030;2023-04-24T04:04:51;1.83;;;1.73;;
20093;SDS011;10206;48.012;10.030;2023-04-24T04:07:17;2.57;;;1.60;;
20093;SDS011;10206;48.012;10.030;2023-04-24T04:09:44;1.67;;;1.57;;
20093;SDS011;10206;48.012;10.030;2023-04-24T04:12:10;1.87;;;1.30;;
20093;SDS011;10206;48.012;10.030;2023-04-24T04:14:37;1.60;;;1.50;;
20093;SDS011;10206;48.012;10.030;2023-04-24T04:17:03;2.83;;;1.43;;
20093;SDS011;10206;48.012;10.030;2023-04-24T04:19:29;1.40;;;1.30;;
20093;SDS011;10206;48.012;10.030;2023-04-24T04:21:55;5.00;;;3.50;;
20093;SDS011;10206;48.012;10.030;2023-04-24T04:24:21;1.80;;;1.40;;
20093;SDS011;10206;48.012;10.030;2023-04-24T04:26:48;8.80;;;4.03;;
20093;SDS011;10206;48.012;10.030;2023-04-24T04:29:16;2.40;;;2.20;;
20093;SDS011;10206;48.012;10.030;2023-04-24T04:31:43;2.67;;;1.73;;
20093;SDS011;10206;48.012;10.030;2023-04-24T04:34:09;2.27;;;1.30;;
20093;SDS011;10206;48.012;10.030;2023-04-24T04:36:36;2.60;;;1.60;;
20093;SDS011;10206;48.012;10.030;2023-04-24T04:39:04;1.20;;;1.20;;
20093;SDS011;10206;48.012;10.030;2023-04-24T04:41:31;2.10;;;1.30;;
20093;SDS011;10206;48.012;10.030;2023-04-24T04:44:00;1.93;;;1.57;;
20093;SDS011;10206;48.012;10.030;2023-04-24T04:46:26;1.17;;;1.07;;
20093;SDS011;10206;48.012;10.030;2023-04-24T04:48:57;1.17;;;1.07;;
20093;SDS011;10206;48.012;10.030;2023-04-24T04:51:24;1.80;;;1.03;;
20093;SDS011;10206;48.012;10.030;2023-04-24T04:53:50;1.60;;;1.33;;
20093;SDS011;10206;48.012;10.030;2023-04-24T04:56:16;1.53;;;1.10;;
20093;SDS011;10206;48.012;10.030;2023-04-24T04:58:42;1.83;;;1.10;;
20093;SDS011;10206;48.012;10.030;2023-04-24T05:01:08;1.10;;;0.93;;
20093;SDS011;10206;48.012;10.030;2023-04-24T05:03:34;1.33;;;1.23;;
20093;SDS011;10206;48.012;10.030;2023-04-24T05:06:01;0.90;;;0.90;;
20093;SDS011;10206;48.012;10.030;2023-04-24T05:08:28;1.40;;;1.30;;
20093;SDS011;10206;48.012;10.030;2023-04-24T05:10:54;1.20;;;1.07;;
20093;SDS011;10206;48.012;10.030;2023-04-24T05:13:21;1.80;;;1.00;;
20093;SDS011;10206;48.012;10.030;2023-04-24T05:15:47;0.93;;;0.80;;
20093;SDS011;10206;48.012;10.030;2023-04-24T05:18:13;0.90;;;0.90;;
20093;SDS011;10206;48.012;10.030;2023-04-24T05:20:40;0.87;;;0.80;;
20093;SDS011;10206;48.012;10.030;2023-04-24T05:23:08;0.73;;;0.70;;
20093;SDS011;10206;48.012;10.030;2023-04-24T05:25:35;2.60;;;0.90;;
20093;SDS011;10206;48.012;10.030;2023-04-24T05:28:01;0.90;;;0.90;;
20093;SDS011;10206;48.012;10.030;2023-04-24T05:30:28;1.37;;;1.07;;
20093;SDS011;10206;48.012;10.030;2023-04-24T05:32:54;1.00;;;0.80;;
20093;SDS011;10206;48.012;10.030;2023-04-24T05:35:20;1.93;;;0.83;;
20093;SDS011;10206;48.012;10.030;2023-04-24T05:37:46;0.70;;;0.70;;
20093;SDS011;10206;48.012;10.030;2023-04-24T05:40:12;0.60;;;0.60;;
20093;SDS011;10206;48.012;10.030;2023-04-24T05:42:38;0.70;;;0.60;;
20093;SDS011;10206;48.012;10.030;2023-04-24T05:45:05;0.60;;;0.60;;
20093;SDS011;10206;48.012;10.030;2023-04-24T05:47:31;1.67;;;0.60;;
20093;SDS011;10206;48.012;10.030;2023-04-24T05:49:57;0.70;;;0.70;;
20093;SDS011;10206;48.012;10.030;2023-04-24T05:52:23;0.70;;;0.70;;
20093;SDS011;10206;48.012;10.030;2023-04-24T05:54:50;1.00;;;0.57;;
20093;SDS011;10206;48.012;10.030;2023-04-24T05:57:16;0.70;;;0.70;;
20093;SDS011;10206;48.012;10.030;2023-04-24T05:59:42;0.70;;;0.70;;
20093;SDS011;10206;48.012;10.030;2023-04-24T06:02:08;0.80;;;0.80;;
20093;SDS011;10206;48.012;10.030;2023-04-24T06:04:34;0.70;;;0.70;;
20093;SDS011;10206;48.012;10.030;2023-04-24T06:07:00;1.57;;;0.90;;
20093;SDS011;10206;48.012;10.030;2023-04-24T06:09:26;0.93;;;0.67;;
20093;SDS011;10206;48.012;10.030;2023-04-24T06:11:52;2.13;;;0.70;;
20093;SDS011;10206;48.012;10.030;2023-04-24T06:14:19;0.80;;;0.70;;
20093;SDS011;10206;48.012;10.030;2023-04-24T06:16:45;1.13;;;0.60;;
20093;SDS011;10206;48.012;10.030;2023-04-24T06:19:11;0.60;;;0.60;;
20093;SDS011;10206;48.012;10.030;2023-04-24T06:21:37;0.77;;;0.70;;
20093;SDS011;10206;48.012;10.030;2023-04-24T06:24:03;1.77;;;0.70;;
20093;SDS011;10206;48.012;10.030;2023-04-24T06:26:29;0.73;;;0.73;;
20093;SDS011;10206;48.012;10.030;2023-04-24T06:28:55;2.13;;;1.00;;
20093;SDS011;10206;48.012;10.030;2023-04-24T06:31:23;2.37;;;1.07;;
20093;SDS011;10206;48.012;10.030;2023-04-24T06:33:49;0.80;;;0.80;;
20093;SDS011;10206;48.012;10.030;2023-04-24T06:36:15;1.00;;;0.70;;
20093;SDS011;10206;48.012;10.030;2023-04-24T06:38:41;0.60;;;0.60;;
20093;SDS011;10206;48.012;10.030;2023-04-24T06:41:08;13.63;;;5.87;;
20093;SDS011;10206;48.012;10.030;2023-04-24T06:43:34;2.63;;;1.53;;
20093;SDS011;10206;48.012;10.030;2023-04-24T06:46:00;1.57;;;1.30;;
20093;SDS011;10206;48.012;10.030;2023-04-24T06:48:28;1.50;;;1.40;;
20093;SDS011;10206;48.012;10.030;2023-04-24T06:50:54;4.77;;;3.87;;
20093;SDS011;10206;48.012;10.030;2023-04-24T06:53:20;3.40;;;2.70;;
20093;SDS011;10206;48.012;10.030;2023-04-24T06:55:46;3.90;;;2.83;;
20093;SDS011;10206;48.012;10.030;2023-04-24T06:58:13;8.83;;;5.03;;
20093;SDS011;10206;48.012;10.030;2023-04-24T07:00:40;4.50;;;3.43;;
20093;SDS011;10206;48.012;10.030;2023-04-24T07:03:07;2.13;;;1.53;;
20093;SDS011;10206;48.012;10.030;2023-04-24T07:05:33;2.20;;;1.10;;
20093;SDS011;10206;48.012;10.030;2023-04-24T07:08:00;4.20;;;2.60;;
20093;SDS011;10206;48.012;10.030;2023-04-24T07:10:26;2.00;;;1.67;;
20093;SDS011;10206;48.012;10.030;2023-04-24T07:12:53;3.23;;;1.43;;
20093;SDS011;10206;48.012;10.030;2023-04-24T07:15:21;17.50;;;8.30;;
20093;SDS011;10206;48.012;10.030;2023-04-24T07:17:48;6.63;;;4.13;;
20093;SDS011;10206;48.012;10.030;2023-04-24T07:20:14;7.40;;;3.67;;
20093;SDS011;10206;48.012;10.030;2023-04-24T07:22:41;5.03;;;2.63;;
20093;SDS011;10206;48.012;10.030;2023-04-24T07:25:08;2.53;;;2.20;;
20093;SDS011;10206;48.012;10.030;2023-04-24T07:27:34;1.50;;;1.40;;
20093;SDS011;10206;48.012;10.030;2023-04-24T07:30:01;3.40;;;2.60;;
20093;SDS011;10206;48.012;10.030;2023-04-24T07:32:28;4.20;;;2.90;;
20093;SDS011;10206;48.012;10.030;2023-04-24T07:34:55;2.90;;;2.47;;
20093;SDS011;10206;48.012;10.030;2023-04-24T07:37:21;13.77;;;7.30;;
20093;SDS011;10206;48.012;10.030;2023-04-24T07:39:47;2.20;;;2.00;;
20093;SDS011;10206;48.012;10.030;2023-04-24T07:42:13;26.57;;;13.57;;
20093;SDS011;10206;48.012;10.030;2023-04-24T07:44:40;169.13;;;90.53;;
20093;SDS011;10206;48.012;10.030;2023-04-24T07:47:06;116.10;;;66.97;;
20093;SDS011;10206;48.012;10.030;2023-04-24T07:49:32;78.37;;;44.40;;
20093;SDS011;10206;48.012;10.030;2023-04-24T07:51:59;14.67;;;9.13;;
20093;SDS011;10206;48.012;10.030;2023-04-24T07:54:27;5.40;;;3.77;;
20093;SDS011;10206;48.012;10.030;2023-04-24T07:56:53;18.70;;;10.33;;
20093;SDS011;10206;48.012;10.030;2023-04-24T07:59:20;7.57;;;4.70;;
20093;SDS011;10206;48.012;10.030;2023-04-24T08:01:46;7.83;;;4.70;;
20093;SDS011;10206;48.012;10.030;2023-04-24T08:04:12;4.93;;;3.27;;
20093;SDS011;10206;48.012;10.030;2023-04-24T08:06:38;23.83;;;14.13;;
20093;SDS011;10206;48.012;10.030;2023-04-24T08:09:04;87.27;;;44.40;;
20093;SDS011;10206;48.012;10.030;2023-04-24T08:11:30;7.10;;;4.73;;
20093;SDS011;10206;48.012;10.030;2023-04-24T08:13:57;5.43;;;2.80;;
20093;SDS011;10206;48.012;10.030;2023-04-24T08:16:23;3.20;;;2.43;;
20093;SDS011;10206;48.012;10.030;2023-04-24T08:18:49;17.57;;;10.63;;
20093;SDS011;10206;48.012;10.030;2023-04-24T08:21:16;6.33;;;4.10;;
20093;SDS011;10206;48.012;10.030;2023-04-24T08:23:43;6.53;;;3.97;;
20093;SDS011;10206;48.012;10.030;2023-04-24T08:26:10;3.73;;;2.40;;
20093;SDS011;10206;48.012;10.030;2023-04-24T08:28:37;2.47;;;1.90;;
20093;SDS011;10206;48.012;10.030;2023-04-24T08:31:04;3.90;;;2.03;;
20093;SDS011;10206;48.012;10.030;2023-04-24T08:33:30;2.17;;;1.97;;
20093;SDS011;10206;48.012;10.030;2023-04-24T08:36:00;2.13;;;1.70;;
20093;SDS011;10206;48.012;10.030;2023-04-24T08:38:29;2.87;;;1.60;;
20093;SDS011;10206;48.012;10.030;2023-04-24T08:40:56;2.00;;;1.60;;
20093;SDS011;10206;48.012;10.030;2023-04-24T08:43:23;3.13;;;1.80;;
20093;SDS011;10206;48.012;10.030;2023-04-24T08:45:51;1.97;;;1.80;;
20093;SDS011;10206;48.012;10.030;2023-04-24T08:48:20;2.40;;;1.60;;
20093;SDS011;10206;48.012;10.030;2023-04-24T08:50:48;3.10;;;1.50;;
20093;SDS011;10206;48.012;10.030;2023-04-24T08:53:16;2.20;;;2.00;;
20093;SDS011;10206;48.012;10.030;2023-04-24T08:55:43;2.77;;;1.80;;
20093;SDS011;10206;48.012;10.030;2023-04-24T08:58:12;3.37;;;1.63;;
20093;SDS011;10206;48.012;10.030;2023-04-24T09:00:39;4.50;;;1.90;;
20093;SDS011;10206;48.012;10.030;2023-04-24T09:03:09;2.47;;;1.83;;
20093;SDS011;10206;48.012;10.030;2023-04-24T09:05:35;3.70;;;1.40;;
20093;SDS011;10206;48.012;10.030;2023-04-24T09:08:02;2.87;;;1.37;;
20093;SDS011;10206;48.012;10.030;2023-04-24T09:10:31;2.50;;;1.00;;
20093;SDS011;10206;48.012;10.030;2023-04-24T09:12:59;0.80;;;0.80;;
20093;SDS011;10206;48.012;10.030;2023-04-24T09:15:26;1.20;;;1.10;;
20093;SDS011;10206;48.012;10.030;2023-04-24T09:17:54;1.30;;;1.20;;
20093;SDS011;10206;48.012;10.030;2023-04-24T09:20:20;1.20;;;1.20;;
20093;SDS011;10206;48.012;10.030;2023-04-24T09:22:46;4.77;;;1.60;;
20093;SDS011;10206;48.012;10.030;2023-04-24T09:25:13;2.53;;;1.53;;
20093;SDS011;10206;48.012;10.030;2023-04-24T09:27:42;1.77;;;1.67;;
20093;SDS011;10206;48.012;10.030;2023-04-24T09:30:10;2.90;;;2.20;;
20093;SDS011;10206;48.012;10.030;2023-04-24T09:32:36;4.30;;;2.40;;
20093;SDS011;10206;48.012;10.030;2023-04-24T09:35:12;3.07;;;2.20;;
20093;SDS011;10206;48.012;10.030;2023-04-24T09:37:44;2.90;;;2.10;;
20093;SDS011;10206;48.012;10.030;2023-04-24T09:40:12;3.03;;;2.20;;
20093;SDS011;10206;48.012;10.030;2023-04-24T09:42:45;3.73;;;2.20;;
20093;SDS011;10206;48.012;10.030;2023-04-24T09:45:16;4.47;;;2.07;;
20093;SDS011;10206;48.012;10.030;2023-04-24T09:47:43;1.83;;;1.50;;
20093;SDS011;10206;48.012;10.030;2023-04-24T09:50:16;2.00;;;1.67;;
20093;SDS011;10206;48.012;10.030;2023-04-24T09:52:46;4.13;;;1.93;;
20093;SDS011;10206;48.012;10.030;2023-04-24T09:55:21;3.30;;;1.70;;
20093;SDS011;10206;48.012;10.030;2023-04-24T09:57:50;2.97;;;1.90;;
20093;SDS011;10206;48.012;10.030;2023-04-24T10:00:22;1.70;;;1.60;;
20093;SDS011;10206;48.012;10.030;2023-04-24T10:02:56;1.97;;;1.80;;
20093;SDS011;10206;48.012;10.030;2023-04-24T10:05:24;1.63;;;1.50;;
20093;SDS011;10206;48.012;10.030;2023-04-24T10:08:07;1.97;;;1.60;;
20093;SDS011;10206;48.012;10.030;2023-04-24T10:10:37;3.73;;;2.40;;
20093;SDS011;10206;48.012;10.030;2023-04-24T10:13:09;3.20;;;1.93;;
20093;SDS011;10206;48.012;10.030;2023-04-24T10:15:39;1.73;;;1.50;;
20093;SDS011;10206;48.012;10.030;2023-04-24T10:18:07;1.57;;;1.40;;
20093;SDS011;10206;48.012;10.030;2023-04-24T10:20:34;1.90;;;1.70;;
20093;SDS011;10206;48.012;10.030;2023-04-24T10:23:02;3.93;;;1.90;;
20093;SDS011;10206;48.012;10.030;2023-04-24T10:25:29;1.80;;;1.70;;
20093;SDS011;10206;48.012;10.030;2023-04-24T10:27:57;4.33;;;1.60;;
20093;SDS011;10206;48.012;10.030;2023-04-24T10:30:26;4.43;;;2.00;;
20093;SDS011;10206;48.012;10.030;2023-04-24T10:32:53;1.60;;;1.40;;
20093;SDS011;10206;48.012;10.030;2023-04-24T10:35:19;2.13;;;1.40;;
20093;SDS011;10206;48.012;10.030;2023-04-24T10:37:50;4.20;;;1.60;;
20093;SDS011;10206;48.012;10.030;2023-04-24T10:40:30;1.83;;;1.40;;
20093;SDS011;10206;48.012;10.030;2023-04-24T10:42:58;2.40;;;1.30;;
20093;SDS011;10206;48.012;10.030;2023-04-24T10:45:26;1.87;;;1.63;;
20093;SDS011;10206;48.012;10.030;2023-04-24T10:50:22;2.37;;;2.10;;
20093;SDS011;10206;48.012;10.030;2023-04-24T10:52:48;4.47;;;1.43;;
20093;SDS011;10206;48.012;10.030;2023-04-24T10:55:16;4.17;;;1.83;;
20093;SDS011;10206;48.012;10.030;2023-04-24T10:58:03;3.50;;;1.70;;
20093;SDS011;10206;48.012;10.030;2023-04-24T11:00:30;3.10;;;1.87;;
20093;SDS011;10206;48.012;10.030;2023-04-24T11:02:56;1.73;;;1.63;;
20093;SDS011;10206;48.012;10.030;2023-04-24T11:05:22;2.53;;;1.40;;
20093;SDS011;10206;48.012;10.030;2023-04-24T11:14:00;3.00;;;2.20;;
20093;SDS011;10206;48.012;10.030;2023-04-24T11:18:51;4.17;;;1.60;;
20093;SDS011;10206;48.012;10.030;2023-04-24T11:21:25;4.07;;;1.60;;
20093;SDS011;10206;48.012;10.030;2023-04-24T11:23:56;1.80;;;1.50;;
20093;SDS011;10206;48.012;10.030;2023-04-24T11:26:22;4.20;;;1.57;;
20093;SDS011;10206;48.012;10.030;2023-04-24T11:29:05;1.40;;;1.30;;
20093;SDS011;10206;48.012;10.030;2023-04-24T11:34:09;2.07;;;1.40;;
20093;SDS011;10206;48.012;10.030;2023-04-24T11:36:37;1.80;;;1.30;;
20093;SDS011;10206;48.012;10.030;2023-04-24T11:39:03;2.13;;;1.40;;
20093;SDS011;10206;48.012;10.030;2023-04-24T11:41:30;3.10;;;1.57;;
20093;SDS011;10206;48.012;10.030;2023-04-24T11:43:57;2.00;;;1.67;;
20093;SDS011;10206;48.012;10.030;2023-04-24T11:46:26;2.40;;;1.63;;
20093;SDS011;10206;48.012;10.030;2023-04-24T11:48:53;4.27;;;1.83;;
20093;SDS011;10206;48.012;10.030;2023-04-24T11:51:21;2.20;;;1.63;;
20093;SDS011;10206;48.012;10.030;2023-04-24T11:53:50;2.33;;;1.70;;
20093;SDS011;10206;48.012;10.030;2023-04-24T11:56:20;4.17;;;2.10;;
20093;SDS011;10206;48.012;10.030;2023-04-24T11:58:47;2.40;;;1.60;;
20093;SDS011;10206;48.012;10.030;2023-04-24T12:01:16;2.67;;;1.70;;
20093;SDS011;10206;48.012;10.030;2023-04-24T12:03:46;3.17;;;1.77;;
20093;SDS011;10206;48.012;10.030;2023-04-24T12:06:13;3.60;;;1.90;;
20093;SDS011;10206;48.012;10.030;2023-04-24T12:08:39;2.10;;;1.50;;
20093;SDS011;10206;48.012;10.030;2023-04-24T12:11:06;2.10;;;1.70;;
20093;SDS011;10206;48.012;10.030;2023-04-24T12:13:33;1.73;;;1.50;;
20093;SDS011;10206;48.012;10.030;2023-04-24T12:16:03;3.40;;;1.63;;
20093;SDS011;10206;48.012;10.030;2023-04-24T12:18:30;1.90;;;1.40;;
20093;SDS011;10206;48.012;10.030;2023-04-24T12:21:14;2.73;;;1.57;;
20093;SDS011;10206;48.012;10.030;2023-04-24T12:23:42;2.30;;;1.80;;
20093;SDS011;10206;48.012;10.030;2023-04-24T12:26:10;1.87;;;1.40;;
20093;SDS011;10206;48.012;10.030;2023-04-24T12:28:37;4.43;;;1.70;;
20093;SDS011;10206;48.012;10.030;2023-04-24T12:31:04;1.60;;;1.50;;
20093;SDS011;10206;48.012;10.030;2023-04-24T12:33:34;1.73;;;1.60;;
20093;SDS011;10206;48.012;10.030;2023-04-24T12:36:00;2.73;;;1.67;;
20093;SDS011;10206;48.012;10.030;2023-04-24T12:38:28;2.30;;;1.60;;
20093;SDS011;10206;48.012;10.030;2023-04-24T12:41:08;1.93;;;1.40;;
20093;SDS011;10206;48.012;10.030;2023-04-24T12:43:36;1.50;;;1.40;;
20093;SDS011;10206;48.012;10.030;2023-04-24T12:46:03;2.07;;;1.63;;
20093;SDS011;10206;48.012;10.030;2023-04-24T12:48:30;3.47;;;1.83;;
20093;SDS011;10206;48.012;10.030;2023-04-24T12:50:59;5.03;;;1.90;;
20093;SDS011;10206;48.012;10.030;2023-04-24T12:53:28;3.00;;;1.73;;
20093;SDS011;10206;48.012;10.030;2023-04-24T12:55:56;3.10;;;1.83;;
20093;SDS011;10206;48.012;10.030;2023-04-24T12:58:22;2.50;;;2.00;;
20093;SDS011;10206;48.012;10.030;2023-04-24T13:00:48;2.13;;;1.73;;
20093;SDS011;10206;48.012;10.030;2023-04-24T13:03:14;3.20;;;1.70;;
20093;SDS011;10206;48.012;10.030;2023-04-24T13:05:41;3.73;;;2.40;;
20093;SDS011;10206;48.012;10.030;2023-04-24T13:08:08;2.57;;;1.73;;
20093;SDS011;10206;48.012;10.030;2023-04-24T13:10:35;3.57;;;1.60;;
20093;SDS011;10206;48.012;10.030;2023-04-24T13:13:01;3.30;;;1.40;;
20093;SDS011;10206;48.012;10.030;2023-04-24T13:15:28;3.17;;;1.60;;
20093;SDS011;10206;48.012;10.030;2023-04-24T13:17:54;3.10;;;1.43;;
20093;SDS011;10206;48.012;10.030;2023-04-24T13:20:20;3.80;;;1.93;;
20093;SDS011;10206;48.012;10.030;2023-04-24T13:22:46;1.93;;;1.60;;
20093;SDS011;10206;48.012;10.030;2023-04-24T13:25:12;3.73;;;1.83;;
20093;SDS011;10206;48.012;10.030;2023-04-24T13:27:41;3.87;;;1.63;;
20093;SDS011;10206;48.012;10.030;2023-04-24T13:30:08;4.37;;;1.53;;
20093;SDS011;10206;48.012;10.030;2023-04-24T13:32:34;2.60;;;1.50;;
20093;SDS011;10206;48.012;10.030;2023-04-24T13:35:01;3.13;;;1.80;;
20093;SDS011;10206;48.012;10.030;2023-04-24T13:37:27;3.47;;;1.40;;
20093;SDS011;10206;48.012;10.030;2023-04-24T13:39:53;1.80;;;1.70;;
20093;SDS011;10206;48.012;10.030;2023-04-24T13:42:19;2.83;;;2.20;;
20093;SDS011;10206;48.012;10.030;2023-04-24T13:44:46;2.27;;;1.80;;
20093;SDS011;10206;48.012;10.030;2023-04-24T13:47:12;2.27;;;1.57;;
20093;SDS011;10206;48.012;10.030;2023-04-24T13:49:38;5.70;;;1.80;;
20093;SDS011;10206;48.012;10.030;2023-04-24T13:52:04;4.87;;;1.80;;
20093;SDS011;10206;48.012;10.030;2023-04-24T13:54:30;3.43;;;1.87;;
20093;SDS011;10206;48.012;10.030;2023-04-24T13:56:57;3.43;;;1.20;;
20093;SDS011;10206;48.012;10.030;2023-04-24T13:59:24;1.87;;;1.43;;
20093;SDS011;10206;48.012;10.030;2023-04-24T14:01:50;2.20;;;1.90;;
20093;SDS011;10206;48.012;10.030;2023-04-24T14:04:16;2.97;;;1.70;;
20093;SDS011;10206;48.012;10.030;2023-04-24T14:06:43;2.53;;;1.40;;
20093;SDS011;10206;48.012;10.030;2023-04-24T14:09:09;9.40;;;4.33;;
20093;SDS011;10206;48.012;10.030;2023-04-24T14:11:35;3.83;;;2.10;;
20093;SDS011;10206;48.012;10.030;2023-04-24T14:14:01;1.37;;;1.27;;
20093;SDS011;10206;48.012;10.030;2023-04-24T14:16:28;2.50;;;1.40;;
20093;SDS011;10206;48.012;10.030;2023-04-24T14:18:55;2.47;;;1.50;;
20093;SDS011;10206;48.012;10.030;2023-04-24T14:21:21;3.63;;;1.70;;
20093;SDS011;10206;48.012;10.030;2023-04-24T14:23:47;1.57;;;1.23;;
20093;SDS011;10206;48.012;10.030;2023-04-24T14:26:13;1.80;;;1.60;;
20093;SDS011;10206;48.012;10.030;2023-04-24T14:28:39;1.63;;;1.33;;
20093;SDS011;10206;48.012;10.030;2023-04-24T14:31:05;2.13;;;1.23;;
20093;SDS011;10206;48.012;10.030;2023-04-24T14:33:33;4.80;;;1.40;;
20093;SDS011;10206;48.012;10.030;2023-04-24T14:35:59;1.40;;;1.30;;
20093;SDS011;10206;48.012;10.030;2023-04-24T14:38:27;1.53;;;1.40;;
20093;SDS011;10206;48.012;10.030;2023-04-24T14:40:54;1.93;;;1.30;;
20093;SDS011;10206;48.012;10.030;2023-04-24T14:43:20;1.73;;;1.23;;
20093;SDS011;10206;48.012;10.030;2023-04-24T14:45:46;2.10;;;1.30;;